Time;durP1;ratioP1;P1;durP2;ratioP2;P2;SDS_P1;SDS_P2;PMS_P1;PMS_P2;Temp;Humidity;BMP_temperature;BMP_pressure;BME280_temperature;BME280_humidity;BME280_pressure;Samples;Min_cycle;Max_cycle;Signal;HPM_P1;HPM_P2
2023/07/08 00:01:13;;;;;;;4.60;2.23;;;;;;;;;;4973764;28;20218;-87
2023/07/08 00:03:41;;;;;;;1.60;1.50;;;;;;;;;;4973550;28;20267;-86
2023/07/08 00:06:13;;;;;;;1.07;1.07;;;;;;;;;;4973131;28;20285;-86
2023/07/08 00:08:41;;;;;;;2.27;2.07;;;;;;;;;;4974197;28;20211;-87
2023/07/08 00:11:12;;;;;;;1.20;1.13;;;;;;;;;;4973369;28;20233;-86
2023/07/08 00:13:42;;;;;;;2.00;1.57;;;;;;;;;;4973441;28;20213;-86
2023/07/08 00:16:12;;;;;;;3.10;2.83;;;;;;;;;;4973461;28;20283;-87
2023/07/08 00:18:40;;;;;;;4.93;2.17;;;;;;;;;;4973770;28;20218;-84
2023/07/08 00:21:15;;;;;;;2.13;1.67;;;;;;;;;;4972766;28;20255;-85
2023/07/08 00:23:45;;;;;;;4.17;3.10;;;;;;;;;;4973728;28;20207;-84
2023/07/08 00:26:17;;;;;;;1.23;0.97;;;;;;;;;;4973615;28;20217;-85
2023/07/08 00:28:47;;;;;;;8.87;1.97;;;;;;;;;;4973114;28;20214;-85
2023/07/08 00:31:15;;;;;;;1.20;1.20;;;;;;;;;;4973088;28;20260;-84
2023/07/08 00:33:44;;;;;;;1.80;1.67;;;;;;;;;;4973594;28;20217;-85
2023/07/08 00:36:13;;;;;;;5.13;1.60;;;;;;;;;;4973255;28;20225;-85
2023/07/08 00:38:44;;;;;;;2.23;1.80;;;;;;;;;;4973205;28;20208;-85
2023/07/08 00:41:15;;;;;;;2.77;2.23;;;;;;;;;;4973582;28;20208;-85
2023/07/08 00:43:45;;;;;;;1.53;1.47;;;;;;;;;;4973273;28;20199;-85
2023/07/08 00:46:21;;;;;;;2.20;2.10;;;;;;;;;;4973173;28;20236;-85
2023/07/08 00:48:50;;;;;;;3.60;1.90;;;;;;;;;;4972980;28;20209;-85
2023/07/08 00:51:19;;;;;;;2.57;2.47;;;;;;;;;;4973135;28;20208;-85
2023/07/08 00:53:48;;;;;;;1.53;1.43;;;;;;;;;;4973198;28;20210;-85
2023/07/08 00:56:19;;;;;;;0.60;0.60;;;;;;;;;;4972922;28;20221;-85
2023/07/08 00:58:51;;;;;;;4.90;2.83;;;;;;;;;;4973450;28;20281;-85
2023/07/08 01:01:21;;;;;;;3.73;1.80;;;;;;;;;;4972843;28;20209;-85
2023/07/08 01:03:51;;;;;;;2.70;2.50;;;;;;;;;;4972805;28;20205;-86
2023/07/08 01:06:21;;;;;;;3.03;1.20;;;;;;;;;;4972515;28;20236;-87
2023/07/08 01:08:53;;;;;;;0.60;0.60;;;;;;;;;;4973135;28;20257;-87
2023/07/08 01:11:22;;;;;;;2.10;2.00;;;;;;;;;;4971840;28;20278;-87
2023/07/08 01:13:53;;;;;;;2.10;1.77;;;;;;;;;;4972385;28;20219;-87
2023/07/08 01:16:23;;;;;;;1.67;1.23;;;;;;;;;;4973180;28;20215;-87
2023/07/08 01:18:53;;;;;;;5.80;3.83;;;;;;;;;;4972800;28;20277;-87
2023/07/08 01:21:32;;;;;;;2.53;1.60;;;;;;;;;;4972669;28;20203;-87
2023/07/08 01:24:04;;;;;;;6.83;4.40;;;;;;;;;;4972731;28;20296;-87
2023/07/08 01:26:32;;;;;;;1.43;1.40;;;;;;;;;;4972586;28;20223;-87
2023/07/08 01:29:01;;;;;;;2.60;2.40;;;;;;;;;;4972286;28;20248;-87
2023/07/08 01:31:30;;;;;;;0.63;0.63;;;;;;;;;;4972166;28;20199;-87
2023/07/08 01:33:59;;;;;;;1.10;1.07;;;;;;;;;;4972577;28;20211;-86
2023/07/08 01:36:28;;;;;;;4.07;2.57;;;;;;;;;;4972855;28;20206;-87
2023/07/08 01:38:57;;;;;;;1.90;1.80;;;;;;;;;;4972358;28;20199;-86
2023/07/08 01:41:27;;;;;;;2.87;2.50;;;;;;;;;;4972084;28;20281;-86
2023/07/08 01:43:55;;;;;;;0.97;0.97;;;;;;;;;;4972902;28;20203;-86
2023/07/08 01:46:26;;;;;;;2.63;1.93;;;;;;;;;;4971982;28;20232;-85
2023/07/08 01:48:56;;;;;;;2.67;2.30;;;;;;;;;;4972170;28;20217;-84
2023/07/08 01:51:24;;;;;;;1.87;1.77;;;;;;;;;;4972084;28;20260;-86
2023/07/08 01:53:53;;;;;;;1.93;1.73;;;;;;;;;;4972203;28;20206;-86
2023/07/08 01:56:22;;;;;;;3.50;3.20;;;;;;;;;;4972219;28;20203;-86
2023/07/08 01:58:52;;;;;;;9.57;3.37;;;;;;;;;;4971894;28;20205;-87
2023/07/08 02:01:20;;;;;;;2.60;1.97;;;;;;;;;;4971967;28;20209;-87
2023/07/08 02:03:48;;;;;;;2.17;2.03;;;;;;;;;;4972068;28;20235;-86
2023/07/08 02:06:17;;;;;;;1.97;1.87;;;;;;;;;;4971233;28;20241;-85
2023/07/08 02:08:45;;;;;;;1.57;1.47;;;;;;;;;;4972243;28;20198;-85
2023/07/08 02:11:14;;;;;;;0.97;0.97;;;;;;;;;;4971878;28;20210;-85
2023/07/08 02:13:42;;;;;;;1.07;1.03;;;;;;;;;;4971500;28;20206;-85
2023/07/08 02:16:12;;;;;;;2.33;2.03;;;;;;;;;;4971758;28;20209;-85
2023/07/08 02:18:41;;;;;;;5.07;3.13;;;;;;;;;;4971572;28;20206;-85
2023/07/08 02:21:10;;;;;;;2.40;2.20;;;;;;;;;;4972086;28;20206;-85
2023/07/08 02:23:38;;;;;;;1.70;1.50;;;;;;;;;;4971602;28;20206;-85
2023/07/08 02:26:07;;;;;;;3.13;1.07;;;;;;;;;;4971642;28;20229;-85
2023/07/08 02:28:35;;;;;;;0.73;0.73;;;;;;;;;;4971688;28;20234;-85
2023/07/08 02:31:04;;;;;;;1.77;1.63;;;;;;;;;;4971347;28;20207;-85
2023/07/08 02:33:34;;;;;;;1.57;1.47;;;;;;;;;;4971802;28;20197;-85
2023/07/08 02:36:03;;;;;;;2.53;2.33;;;;;;;;;;4971766;28;20205;-87
2023/07/08 02:38:32;;;;;;;1.60;1.13;;;;;;;;;;4971653;28;20277;-87
2023/07/08 02:41:01;;;;;;;4.00;3.37;;;;;;;;;;4971177;28;20198;-85
2023/07/08 02:43:29;;;;;;;0.50;0.50;;;;;;;;;;4971496;28;20297;-85
2023/07/08 02:45:58;;;;;;;0.40;0.40;;;;;;;;;;4971123;28;20215;-85
2023/07/08 02:48:27;;;;;;;0.50;0.47;;;;;;;;;;4971003;28;20306;-85
2023/07/08 02:51:01;;;;;;;2.50;2.30;;;;;;;;;;4971793;28;20195;-85
2023/07/08 02:53:30;;;;;;;1.70;1.60;;;;;;;;;;4971237;28;20257;-85
2023/07/08 02:55:59;;;;;;;0.50;0.50;;;;;;;;;;4971552;28;20210;-85
2023/07/08 02:58:27;;;;;;;1.57;1.47;;;;;;;;;;4971165;28;20206;-85
2023/07/08 03:00:58;;;;;;;0.53;0.53;;;;;;;;;;4971627;28;20224;-85
2023/07/08 03:03:28;;;;;;;4.27;1.90;;;;;;;;;;4971317;28;20227;-85
2023/07/08 03:05:58;;;;;;;4.53;3.87;;;;;;;;;;4970376;28;20306;-85
2023/07/08 03:08:28;;;;;;;1.60;1.40;;;;;;;;;;4971074;28;20206;-85
2023/07/08 03:10:58;;;;;;;1.03;0.97;;;;;;;;;;4971394;28;20202;-85
2023/07/08 03:13:27;;;;;;;4.03;2.57;;;;;;;;;;4970730;28;20197;-85
2023/07/08 03:15:56;;;;;;;1.00;1.00;;;;;;;;;;4971083;28;20193;-85
2023/07/08 03:18:26;;;;;;;6.57;4.57;;;;;;;;;;4970715;28;20197;-87
2023/07/08 03:20:55;;;;;;;2.43;1.57;;;;;;;;;;4971221;28;20241;-87
2023/07/08 03:23:24;;;;;;;1.40;1.33;;;;;;;;;;4970540;28;20223;-86
2023/07/08 03:25:54;;;;;;;0.50;0.50;;;;;;;;;;4970831;28;20235;-86
2023/07/08 03:28:23;;;;;;;0.30;0.30;;;;;;;;;;4971165;28;20232;-86
2023/07/08 03:30:53;;;;;;;1.00;1.00;;;;;;;;;;4970603;28;20215;-87
2023/07/08 03:33:22;;;;;;;1.87;1.70;;;;;;;;;;4969990;28;20203;-87
2023/07/08 03:35:51;;;;;;;1.93;1.77;;;;;;;;;;4970218;28;20201;-87
2023/07/08 03:38:20;;;;;;;1.27;1.27;;;;;;;;;;4970870;28;20217;-86
2023/07/08 03:40:48;;;;;;;1.60;1.60;;;;;;;;;;4970183;28;20208;-87
2023/07/08 03:43:18;;;;;;;0.73;0.73;;;;;;;;;;4970587;28;20206;-86
2023/07/08 03:45:47;;;;;;;1.33;1.27;;;;;;;;;;4970465;28;20206;-86
2023/07/08 03:48:15;;;;;;;2.00;1.57;;;;;;;;;;4970254;28;20237;-87
2023/07/08 03:50:44;;;;;;;1.77;1.67;;;;;;;;;;4970681;28;20265;-87
2023/07/08 03:53:13;;;;;;;0.63;0.63;;;;;;;;;;4970838;28;20205;-85
2023/07/08 03:55:41;;;;;;;1.77;1.67;;;;;;;;;;4970569;28;20267;-85
2023/07/08 03:58:10;;;;;;;3.50;1.37;;;;;;;;;;4970239;28;20242;-85
2023/07/08 04:00:39;;;;;;;0.97;0.80;;;;;;;;;;4970215;28;20213;-85
2023/07/08 04:03:09;;;;;;;2.57;2.13;;;;;;;;;;4970209;28;20224;-85
2023/07/08 04:05:38;;;;;;;1.07;1.07;;;;;;;;;;4969819;28;20243;-85
2023/07/08 04:08:06;;;;;;;0.73;0.73;;;;;;;;;;4970306;28;20222;-84
2023/07/08 04:10:35;;;;;;;0.67;0.67;;;;;;;;;;4969963;28;20205;-85
2023/07/08 04:13:03;;;;;;;2.27;1.90;;;;;;;;;;4970661;28;20259;-85
2023/07/08 04:15:32;;;;;;;1.40;1.30;;;;;;;;;;4969883;28;20205;-85
2023/07/08 04:18:02;;;;;;;2.73;2.53;;;;;;;;;;4970592;28;20212;-85
2023/07/08 04:20:31;;;;;;;2.57;2.37;;;;;;;;;;4970274;28;20206;-85
2023/07/08 04:22:59;;;;;;;0.87;0.87;;;;;;;;;;4970085;28;20208;-85
2023/07/08 04:25:28;;;;;;;6.93;4.03;;;;;;;;;;4970198;28;20211;-85
2023/07/08 04:27:56;;;;;;;1.13;1.13;;;;;;;;;;4970212;28;20319;-85
2023/07/08 04:30:26;;;;;;;3.23;2.83;;;;;;;;;;4969854;28;20214;-85
2023/07/08 04:32:55;;;;;;;1.37;1.33;;;;;;;;;;4970066;28;20206;-85
2023/07/08 04:35:26;;;;;;;0.37;0.37;;;;;;;;;;4970057;28;20206;-85
2023/07/08 04:37:54;;;;;;;1.57;1.50;;;;;;;;;;4970026;28;20203;-85
2023/07/08 04:40:23;;;;;;;0.60;0.60;;;;;;;;;;4969795;28;20210;-85
2023/07/08 04:42:52;;;;;;;4.37;3.97;;;;;;;;;;4969681;28;20204;-85
2023/07/08 04:45:21;;;;;;;2.77;2.50;;;;;;;;;;4970076;28;20213;-85
2023/07/08 04:47:52;;;;;;;12.83;3.37;;;;;;;;;;4972644;28;20250;-85
2023/07/08 04:50:21;;;;;;;1.53;1.43;;;;;;;;;;4972724;28;20255;-85
2023/07/08 04:52:51;;;;;;;5.37;4.87;;;;;;;;;;4973038;28;20202;-85
2023/07/08 04:55:20;;;;;;;7.63;2.33;;;;;;;;;;4973309;28;20210;-85
2023/07/08 04:57:48;;;;;;;3.27;2.23;;;;;;;;;;4972720;28;20205;-85
2023/07/08 05:00:19;;;;;;;3.10;2.90;;;;;;;;;;4972788;28;20199;-85
2023/07/08 05:02:48;;;;;;;3.20;2.23;;;;;;;;;;4973376;28;20214;-85
2023/07/08 05:05:16;;;;;;;2.60;1.90;;;;;;;;;;4972598;28;20324;-85
2023/07/08 05:07:45;;;;;;;3.30;2.23;;;;;;;;;;4972759;28;20227;-85
2023/07/08 05:10:15;;;;;;;3.57;2.93;;;;;;;;;;4972707;28;20212;-85
2023/07/08 05:12:43;;;;;;;2.23;2.03;;;;;;;;;;4973099;28;20206;-84
2023/07/08 05:15:12;;;;;;;4.33;3.23;;;;;;;;;;4972171;28;20258;-85
2023/07/08 05:17:41;;;;;;;6.77;3.07;;;;;;;;;;4972621;28;20204;-85
2023/07/08 05:20:10;;;;;;;6.23;5.00;;;;;;;;;;4972862;28;20218;-85
2023/07/08 05:22:39;;;;;;;4.70;3.93;;;;;;;;;;4972881;28;20208;-85
2023/07/08 05:25:07;;;;;;;5.83;4.80;;;;;;;;;;4972063;28;20205;-85
2023/07/08 05:27:37;;;;;;;2.80;2.50;;;;;;;;;;4972407;28;20238;-85
2023/07/08 05:30:07;;;;;;;0.50;0.50;;;;;;;;;;4972301;28;20255;-85
2023/07/08 05:32:35;;;;;;;6.00;3.87;;;;;;;;;;4972582;28;20230;-85
2023/07/08 05:35:04;;;;;;;5.20;2.40;;;;;;;;;;4972623;28;20206;-85
2023/07/08 05:37:35;;;;;;;2.17;1.83;;;;;;;;;;4973230;28;20197;-85
2023/07/08 05:40:04;;;;;;;0.57;0.57;;;;;;;;;;4972445;28;20208;-85
2023/07/08 05:42:33;;;;;;;4.13;2.67;;;;;;;;;;4972240;28;20207;-85
2023/07/08 05:45:03;;;;;;;3.03;2.13;;;;;;;;;;4972256;28;20200;-85
2023/07/08 05:47:31;;;;;;;1.87;1.70;;;;;;;;;;4972380;28;20264;-85
2023/07/08 05:49:59;;;;;;;5.57;4.43;;;;;;;;;;4971962;28;20218;-85
2023/07/08 05:52:28;;;;;;;3.80;3.50;;;;;;;;;;4972807;28;20203;-85
2023/07/08 05:54:56;;;;;;;2.50;2.03;;;;;;;;;;4972332;28;20257;-85
2023/07/08 05:57:25;;;;;;;4.27;2.67;;;;;;;;;;4972562;28;20242;-85
2023/07/08 05:59:53;;;;;;;3.10;2.43;;;;;;;;;;4972172;28;20214;-85
2023/07/08 06:02:25;;;;;;;2.23;1.40;;;;;;;;;;4972526;28;20212;-85
2023/07/08 06:04:54;;;;;;;1.53;1.43;;;;;;;;;;4972101;28;20239;-86
2023/07/08 06:07:22;;;;;;;3.50;2.83;;;;;;;;;;4972115;28;20330;-85
2023/07/08 06:09:51;;;;;;;3.13;2.93;;;;;;;;;;4971489;28;20208;-84
2023/07/08 06:12:20;;;;;;;6.83;3.70;;;;;;;;;;4972082;28;20203;-85
2023/07/08 06:14:48;;;;;;;1.90;1.80;;;;;;;;;;4972193;28;20216;-85
2023/07/08 06:17:17;;;;;;;9.07;3.80;;;;;;;;;;4971723;28;20217;-85
2023/07/08 06:19:47;;;;;;;3.20;2.50;;;;;;;;;;4971776;28;20202;-87
2023/07/08 06:22:16;;;;;;;5.73;1.87;;;;;;;;;;4971656;28;20201;-86
2023/07/08 06:25:05;;;;;;;1.47;1.37;;;;;;;;;;4971211;28;20237;-87
2023/07/08 06:27:34;;;;;;;11.63;3.37;;;;;;;;;;4971389;28;20224;-87
2023/07/08 06:30:02;;;;;;;0.90;0.90;;;;;;;;;;4971631;28;20242;-87
2023/07/08 06:32:31;;;;;;;5.57;3.70;;;;;;;;;;4971343;28;20226;-86
2023/07/08 06:35:01;;;;;;;3.47;2.87;;;;;;;;;;4971325;28;20237;-86
2023/07/08 06:37:29;;;;;;;2.77;1.90;;;;;;;;;;4971706;28;20199;-86
2023/07/08 06:39:58;;;;;;;1.53;1.43;;;;;;;;;;4971448;28;20218;-87
2023/07/08 06:42:29;;;;;;;3.73;2.70;;;;;;;;;;4970709;28;20209;-86
2023/07/08 06:44:58;;;;;;;2.50;1.90;;;;;;;;;;4971735;28;20209;-86
2023/07/08 06:47:26;;;;;;;4.00;3.43;;;;;;;;;;4971718;28;20211;-87
2023/07/08 06:49:55;;;;;;;1.97;1.53;;;;;;;;;;4971703;28;20202;-87
2023/07/08 06:52:33;;;;;;;3.70;2.43;;;;;;;;;;4970910;28;20211;-87
2023/07/08 06:55:02;;;;;;;5.53;3.70;;;;;;;;;;4971722;28;20202;-86
2023/07/08 06:57:32;;;;;;;3.93;2.67;;;;;;;;;;4971040;28;20217;-86
2023/07/08 07:00:01;;;;;;;1.27;1.23;;;;;;;;;;4970519;28;20204;-86
2023/07/08 07:02:30;;;;;;;3.50;2.13;;;;;;;;;;4971426;28;20198;-85
2023/07/08 07:04:58;;;;;;;2.33;2.13;;;;;;;;;;4971122;28;20277;-86
2023/07/08 07:07:28;;;;;;;4.20;2.93;;;;;;;;;;4971254;28;20214;-87
2023/07/08 07:09:57;;;;;;;2.17;2.07;;;;;;;;;;4969653;28;20289;-86
2023/07/08 07:12:25;;;;;;;2.23;1.80;;;;;;;;;;4971336;28;20209;-87
2023/07/08 07:14:54;;;;;;;3.47;2.47;;;;;;;;;;4971111;28;20234;-87
2023/07/08 07:17:24;;;;;;;3.07;2.77;;;;;;;;;;4970429;28;20204;-87
2023/07/08 07:19:53;;;;;;;0.67;0.60;;;;;;;;;;4970961;28;20200;-86
2023/07/08 07:22:21;;;;;;;4.87;3.40;;;;;;;;;;4970444;28;20207;-86
2023/07/08 07:24:51;;;;;;;3.87;1.60;;;;;;;;;;4970926;28;20249;-86
2023/07/08 07:27:20;;;;;;;1.60;0.93;;;;;;;;;;4974202;28;20239;-87
2023/07/08 07:29:49;;;;;;;2.13;1.93;;;;;;;;;;4974579;28;20227;-87
2023/07/08 07:32:18;;;;;;;1.93;1.10;;;;;;;;;;4975996;28;20205;-87
2023/07/08 07:34:48;;;;;;;2.40;2.30;;;;;;;;;;4974879;28;20282;-86
2023/07/08 07:37:17;;;;;;;1.53;1.43;;;;;;;;;;4970853;28;20212;-87
2023/07/08 07:39:46;;;;;;;2.13;1.70;;;;;;;;;;4970715;28;20205;-86
2023/07/08 07:42:17;;;;;;;0.63;0.63;;;;;;;;;;4970529;28;20234;-87
2023/07/08 07:44:45;;;;;;;0.73;0.73;;;;;;;;;;4970277;28;20208;-87
2023/07/08 07:47:14;;;;;;;0.90;0.90;;;;;;;;;;4970253;28;20207;-85
2023/07/08 07:49:43;;;;;;;2.93;2.50;;;;;;;;;;4970616;28;20220;-85
2023/07/08 07:52:11;;;;;;;3.37;2.87;;;;;;;;;;4970051;28;20195;-85
2023/07/08 07:54:40;;;;;;;6.10;3.03;;;;;;;;;;4970375;28;20214;-85
2023/07/08 07:57:08;;;;;;;2.97;2.67;;;;;;;;;;4970565;28;20224;-85
2023/07/08 07:59:38;;;;;;;2.40;2.20;;;;;;;;;;4969501;28;20226;-85
2023/07/08 08:02:07;;;;;;;1.40;1.27;;;;;;;;;;4969850;28;20259;-85
2023/07/08 08:04:35;;;;;;;4.60;0.83;;;;;;;;;;4970314;28;20199;-86
2023/07/08 08:07:04;;;;;;;2.73;2.17;;;;;;;;;;4970422;28;20218;-85
2023/07/08 08:09:32;;;;;;;3.87;2.33;;;;;;;;;;4969166;28;20274;-85
2023/07/08 08:12:02;;;;;;;3.00;2.63;;;;;;;;;;4969965;28;20196;-85
2023/07/08 08:14:31;;;;;;;1.23;1.13;;;;;;;;;;4970519;28;20225;-85
2023/07/08 08:17:02;;;;;;;4.90;3.47;;;;;;;;;;4969836;28;20208;-85
2023/07/08 08:19:31;;;;;;;2.33;1.80;;;;;;;;;;4969437;28;20252;-85
2023/07/08 08:21:59;;;;;;;3.03;1.50;;;;;;;;;;4973638;28;20209;-85
2023/07/08 08:24:28;;;;;;;1.97;1.77;;;;;;;;;;4973518;28;20206;-85
2023/07/08 08:26:57;;;;;;;8.03;2.80;;;;;;;;;;4973701;28;20215;-85
2023/07/08 08:29:25;;;;;;;1.90;1.33;;;;;;;;;;4973239;28;20220;-85
2023/07/08 08:31:54;;;;;;;1.27;1.17;;;;;;;;;;4973277;28;20200;-86
2023/07/08 08:34:24;;;;;;;1.07;0.93;;;;;;;;;;4972971;28;20201;-85
2023/07/08 08:36:55;;;;;;;1.93;1.67;;;;;;;;;;4972988;28;20205;-85
2023/07/08 08:39:24;;;;;;;1.60;1.33;;;;;;;;;;4973830;28;20212;-86
2023/07/08 08:41:54;;;;;;;1.93;1.83;;;;;;;;;;4973378;28;20272;-85
2023/07/08 08:44:27;;;;;;;1.23;0.80;;;;;;;;;;4973045;28;20201;-85
2023/07/08 08:46:56;;;;;;;3.17;2.83;;;;;;;;;;4973877;28;20227;-84
2023/07/08 08:49:28;;;;;;;2.03;1.83;;;;;;;;;;4973255;28;20235;-85
2023/07/08 08:51:57;;;;;;;2.30;1.93;;;;;;;;;;4973092;28;20208;-85
2023/07/08 08:54:26;;;;;;;4.07;3.50;;;;;;;;;;4973120;28;20205;-84
2023/07/08 08:57:01;;;;;;;1.50;1.37;;;;;;;;;;4973569;28;20205;-84
2023/07/08 08:59:45;;;;;;;1.13;0.93;;;;;;;;;;4973308;28;20199;-85
2023/07/08 09:02:25;;;;;;;5.67;2.70;;;;;;;;;;4972394;28;20212;-85
2023/07/08 09:04:55;;;;;;;3.47;2.27;;;;;;;;;;4972392;28;20327;-85
2023/07/08 09:07:24;;;;;;;6.27;3.27;;;;;;;;;;4972686;28;20214;-85
2023/07/08 09:09:56;;;;;;;1.93;1.77;;;;;;;;;;4972111;28;20228;-84
2023/07/08 09:12:26;;;;;;;4.83;2.63;;;;;;;;;;4972818;28;20212;-85
2023/07/08 09:14:55;;;;;;;2.53;2.27;;;;;;;;;;4972725;28;20224;-85
2023/07/08 09:17:26;;;;;;;2.80;1.87;;;;;;;;;;4972850;28;20210;-85
2023/07/08 09:20:01;;;;;;;3.80;3.30;;;;;;;;;;4972879;28;20209;-85
2023/07/08 09:22:33;;;;;;;1.63;1.50;;;;;;;;;;4972365;28;20300;-85
2023/07/08 09:25:05;;;;;;;2.93;1.87;;;;;;;;;;4972490;28;20251;-84
2023/07/08 09:27:33;;;;;;;4.03;3.20;;;;;;;;;;4971957;28;20233;-85
2023/07/08 09:30:02;;;;;;;1.67;1.20;;;;;;;;;;4972464;28;20223;-85
2023/07/08 09:32:33;;;;;;;1.90;1.47;;;;;;;;;;4971780;28;20203;-85
2023/07/08 09:35:06;;;;;;;2.50;2.30;;;;;;;;;;4971663;28;20200;-85
2023/07/08 09:37:35;;;;;;;2.37;2.27;;;;;;;;;;4972372;28;20226;-85
2023/07/08 09:40:06;;;;;;;3.97;3.67;;;;;;;;;;4972025;28;20292;-85
2023/07/08 09:42:35;;;;;;;3.20;2.23;;;;;;;;;;4972374;28;20242;-85
2023/07/08 09:45:12;;;;;;;3.33;2.73;;;;;;;;;;4971787;28;20208;-84
2023/07/08 09:47:40;;;;;;;2.50;2.23;;;;;;;;;;4972284;28;20209;-85
2023/07/08 09:50:19;;;;;;;2.23;1.77;;;;;;;;;;4972032;28;20218;-85
2023/07/08 09:52:48;;;;;;;4.77;2.67;;;;;;;;;;4972349;28;20201;-85
2023/07/08 09:55:17;;;;;;;2.60;2.00;;;;;;;;;;4972259;28;20203;-85
2023/07/08 09:57:47;;;;;;;3.23;2.53;;;;;;;;;;4972118;28;20218;-85
2023/07/08 10:00:17;;;;;;;1.57;1.47;;;;;;;;;;4972134;28;20225;-85
2023/07/08 10:02:47;;;;;;;1.73;1.63;;;;;;;;;;4971652;28;20203;-85
2023/07/08 10:05:20;;;;;;;5.80;3.43;;;;;;;;;;4971851;28;20246;-85
2023/07/08 10:07:50;;;;;;;0.63;0.63;;;;;;;;;;4972280;28;20223;-85
2023/07/08 10:10:20;;;;;;;2.97;2.37;;;;;;;;;;4971604;28;20318;-85
2023/07/08 10:12:55;;;;;;;2.43;2.00;;;;;;;;;;4972110;28;20207;-85
2023/07/08 10:15:26;;;;;;;2.77;2.40;;;;;;;;;;4971648;28;20202;-85
2023/07/08 10:17:55;;;;;;;1.47;1.30;;;;;;;;;;4971614;28;20208;-85
2023/07/08 10:20:24;;;;;;;2.20;2.00;;;;;;;;;;4971336;28;20218;-85
2023/07/08 10:23:01;;;;;;;3.80;3.10;;;;;;;;;;4972018;28;20211;-84
2023/07/08 10:25:34;;;;;;;3.30;1.67;;;;;;;;;;4971828;28;20293;-85
2023/07/08 10:28:05;;;;;;;2.10;1.90;;;;;;;;;;4971151;28;20228;-85
2023/07/08 10:30:39;;;;;;;6.57;1.93;;;;;;;;;;4971382;28;20232;-85
2023/07/08 10:33:28;;;;;;;5.30;3.93;;;;;;;;;;4971836;28;20234;-85
2023/07/08 10:36:04;;;;;;;2.37;1.60;;;;;;;;;;4971440;28;20208;-85
2023/07/08 10:38:42;;;;;;;3.63;3.30;;;;;;;;;;4971455;28;20205;-85
2023/07/08 10:41:14;;;;;;;4.60;1.57;;;;;;;;;;4971502;28;20207;-85
2023/07/08 10:43:50;;;;;;;4.80;3.47;;;;;;;;;;4970324;28;20208;-85
2023/07/08 10:46:26;;;;;;;1.53;1.43;;;;;;;;;;4971568;28;20218;-85
2023/07/08 10:49:02;;;;;;;0.77;0.60;;;;;;;;;;4971516;28;20266;-85
2023/07/08 10:51:36;;;;;;;2.37;1.97;;;;;;;;;;4971073;28;20230;-85
2023/07/08 10:54:15;;;;;;;5.90;4.07;;;;;;;;;;4970871;28;20207;-85
2023/07/08 10:56:52;;;;;;;6.63;3.60;;;;;;;;;;4971219;28;20230;-85
2023/07/08 10:59:35;;;;;;;7.03;4.23;;;;;;;;;;4971168;28;20226;-85
2023/07/08 11:02:12;;;;;;;3.93;3.43;;;;;;;;;;4970632;28;20212;-85
2023/07/08 11:04:51;;;;;;;4.23;2.93;;;;;;;;;;4970977;28;20204;-85
2023/07/08 11:07:24;;;;;;;3.60;3.10;;;;;;;;;;4970896;28;20214;-85
2023/07/08 11:09:56;;;;;;;3.03;2.73;;;;;;;;;;4970816;28;20201;-85
2023/07/08 11:12:27;;;;;;;3.17;2.13;;;;;;;;;;4970675;28;20216;-85
2023/07/08 11:15:00;;;;;;;1.90;1.80;;;;;;;;;;4971144;28;20205;-85
2023/07/08 11:17:32;;;;;;;4.43;4.00;;;;;;;;;;4970863;28;20274;-85
2023/07/08 11:20:04;;;;;;;2.80;2.53;;;;;;;;;;4970505;28;20209;-86
2023/07/08 11:22:34;;;;;;;5.20;4.03;;;;;;;;;;4970992;28;20212;-85
2023/07/08 11:25:06;;;;;;;4.27;3.60;;;;;;;;;;4970432;28;20208;-85
2023/07/08 11:27:37;;;;;;;2.50;1.80;;;;;;;;;;4970674;28;20233;-85
2023/07/08 11:30:08;;;;;;;3.83;2.53;;;;;;;;;;4970256;28;20244;-85
2023/07/08 11:32:37;;;;;;;4.47;2.90;;;;;;;;;;4970619;28;20214;-85
2023/07/08 11:35:07;;;;;;;5.40;3.13;;;;;;;;;;4970731;28;20206;-85
2023/07/08 11:37:36;;;;;;;4.23;3.23;;;;;;;;;;4970601;28;20201;-86
2023/07/08 11:40:10;;;;;;;3.03;2.73;;;;;;;;;;4970546;28;20208;-86
2023/07/08 11:42:41;;;;;;;5.30;3.33;;;;;;;;;;4970535;28;20197;-86
2023/07/08 11:45:17;;;;;;;5.53;3.63;;;;;;;;;;4970560;28;20209;-86
2023/07/08 11:47:46;;;;;;;3.80;3.47;;;;;;;;;;4970429;28;20200;-86
2023/07/08 11:50:23;;;;;;;6.17;3.87;;;;;;;;;;4970553;28;20274;-86
2023/07/08 11:52:52;;;;;;;2.00;1.90;;;;;;;;;;4970464;28;20204;-86
2023/07/08 11:55:28;;;;;;;4.73;3.60;;;;;;;;;;4969611;28;20201;-86
2023/07/08 11:58:01;;;;;;;5.23;3.43;;;;;;;;;;4970819;28;20258;-86
2023/07/08 12:00:33;;;;;;;1.60;1.47;;;;;;;;;;4970093;28;20247;-86
2023/07/08 12:03:05;;;;;;;5.70;3.87;;;;;;;;;;4969734;28;20201;-86
2023/07/08 12:05:35;;;;;;;4.07;2.63;;;;;;;;;;4970143;28;20232;-86
2023/07/08 12:08:13;;;;;;;2.80;2.00;;;;;;;;;;4970312;28;20213;-85
2023/07/08 12:10:43;;;;;;;5.13;4.00;;;;;;;;;;4969834;28;20231;-85
2023/07/08 12:13:14;;;;;;;1.27;0.83;;;;;;;;;;4969836;28;20205;-85
2023/07/08 12:15:43;;;;;;;3.57;2.90;;;;;;;;;;4970123;28;20208;-85
2023/07/08 12:18:14;;;;;;;5.73;4.00;;;;;;;;;;4970073;28;20205;-85
2023/07/08 12:20:43;;;;;;;9.67;4.03;;;;;;;;;;4969673;28;20197;-85
2023/07/08 12:23:13;;;;;;;2.97;1.60;;;;;;;;;;4970312;28;20205;-85
2023/07/08 12:25:43;;;;;;;5.47;3.53;;;;;;;;;;4970400;28;20219;-85
2023/07/08 12:28:13;;;;;;;21.87;4.60;;;;;;;;;;4969704;28;20229;-86
2023/07/08 12:30:42;;;;;;;5.87;3.13;;;;;;;;;;4969988;28;20205;-86
2023/07/08 12:33:12;;;;;;;4.73;3.73;;;;;;;;;;4969820;28;20201;-86
2023/07/08 12:35:42;;;;;;;2.87;2.63;;;;;;;;;;4970278;28;20220;-86
2023/07/08 12:38:17;;;;;;;7.00;3.70;;;;;;;;;;4969438;28;20201;-86
2023/07/08 12:40:46;;;;;;;2.53;2.33;;;;;;;;;;4969889;28;20219;-86
2023/07/08 12:43:15;;;;;;;5.00;3.90;;;;;;;;;;4969814;28;20197;-86
2023/07/08 12:45:44;;;;;;;3.07;2.87;;;;;;;;;;4969637;28;20231;-87
2023/07/08 12:48:13;;;;;;;5.30;4.00;;;;;;;;;;4969199;28;20210;-86
2023/07/08 12:50:41;;;;;;;3.80;3.07;;;;;;;;;;4969732;28;20201;-86
2023/07/08 12:53:12;;;;;;;3.23;2.40;;;;;;;;;;4969661;28;20212;-86
2023/07/08 12:55:42;;;;;;;3.10;2.80;;;;;;;;;;4969286;28;20268;-86
2023/07/08 12:58:14;;;;;;;5.73;3.60;;;;;;;;;;4969490;28;20209;-87
2023/07/08 13:00:43;;;;;;;3.73;3.43;;;;;;;;;;4969597;28;20263;-86
2023/07/08 13:03:15;;;;;;;2.23;2.00;;;;;;;;;;4969206;28;20202;-86
2023/07/08 13:05:44;;;;;;;9.80;2.80;;;;;;;;;;4969428;28;20236;-86
2023/07/08 13:08:13;;;;;;;3.80;2.67;;;;;;;;;;4972088;28;20209;-86
2023/07/08 13:10:42;;;;;;;4.10;3.30;;;;;;;;;;4972954;28;20209;-86
2023/07/08 13:13:14;;;;;;;4.23;2.67;;;;;;;;;;4972184;28;20212;-86
2023/07/08 13:15:44;;;;;;;9.03;3.53;;;;;;;;;;4972911;28;20212;-86
2023/07/08 13:18:15;;;;;;;3.70;3.33;;;;;;;;;;4972739;28;20213;-85
2023/07/08 13:20:45;;;;;;;2.57;2.37;;;;;;;;;;4972401;28;20205;-85
2023/07/08 13:23:14;;;;;;;5.03;4.00;;;;;;;;;;4972694;28;20205;-86
2023/07/08 13:25:42;;;;;;;2.63;2.43;;;;;;;;;;4972438;28;20198;-86
2023/07/08 13:28:18;;;;;;;2.37;2.00;;;;;;;;;;4972509;28;20236;-86
2023/07/08 13:30:55;;;;;;;4.90;3.50;;;;;;;;;;4972291;28;20204;-86
2023/07/08 13:33:24;;;;;;;3.47;3.10;;;;;;;;;;4972730;28;20303;-86
2023/07/08 13:35:55;;;;;;;7.30;3.03;;;;;;;;;;4972712;28;20202;-85
2023/07/08 13:38:25;;;;;;;3.73;3.30;;;;;;;;;;4972004;28;20308;-86
2023/07/08 13:40:55;;;;;;;2.87;2.40;;;;;;;;;;4972475;28;20203;-87
2023/07/08 13:43:25;;;;;;;0.80;0.80;;;;;;;;;;4972191;28;20201;-86
2023/07/08 13:45:55;;;;;;;5.10;4.80;;;;;;;;;;4972352;28;20216;-86
2023/07/08 13:48:26;;;;;;;6.17;4.33;;;;;;;;;;4972088;28;20219;-86
2023/07/08 13:50:57;;;;;;;2.57;1.40;;;;;;;;;;4972261;28;20201;-86
2023/07/08 13:53:26;;;;;;;3.87;2.57;;;;;;;;;;4972175;28;20320;-86
2023/07/08 13:56:01;;;;;;;3.90;2.77;;;;;;;;;;4971844;28;20213;-86
2023/07/08 13:58:31;;;;;;;6.70;3.13;;;;;;;;;;4972393;28;20219;-86
2023/07/08 14:01:01;;;;;;;6.40;3.20;;;;;;;;;;4971978;28;20210;-86
2023/07/08 14:03:30;;;;;;;2.10;1.90;;;;;;;;;;4971746;28;20201;-86
2023/07/08 14:05:58;;;;;;;3.07;2.27;;;;;;;;;;4971785;28;20272;-86
2023/07/08 14:08:27;;;;;;;3.20;2.50;;;;;;;;;;4971989;28;20297;-86
2023/07/08 14:10:55;;;;;;;3.40;2.72;;;;;;;;;;4971825;28;20204;-86
2023/07/08 14:13:26;;;;;;;4.47;2.23;;;;;;;;;;4971602;28;20224;-85
2023/07/08 14:15:55;;;;;;;3.45;2.67;;;;;;;;;;4971924;28;20216;-85
2023/07/08 14:18:25;;;;;;;4.55;3.10;;;;;;;;;;4971461;28;20211;-85
2023/07/08 14:20:54;;;;;;;0.75;0.75;;;;;;;;;;4971672;28;20220;-85
2023/07/08 14:23:23;;;;;;;0.77;0.77;;;;;;;;;;4971625;28;20205;-86
2023/07/08 14:25:51;;;;;;;12.00;3.42;;;;;;;;;;4971998;28;20220;-86
2023/07/08 14:28:20;;;;;;;0.43;0.43;;;;;;;;;;4972031;28;20232;-86
2023/07/08 14:30:49;;;;;;;2.13;1.88;;;;;;;;;;4971294;28;20205;-86
2023/07/08 14:33:18;;;;;;;1.88;1.67;;;;;;;;;;4971629;28;20224;-85
2023/07/08 14:35:48;;;;;;;1.70;1.60;;;;;;;;;;4971504;28;20209;-86
2023/07/08 14:38:16;;;;;;;2.20;1.07;;;;;;;;;;4971392;28;20209;-85
2023/07/08 14:40:45;;;;;;;2.10;1.83;;;;;;;;;;4971105;28;20204;-85
2023/07/08 14:43:18;;;;;;;2.58;2.38;;;;;;;;;;4971759;28;20208;-85
2023/07/08 14:45:49;;;;;;;3.67;2.95;;;;;;;;;;4971442;28;20205;-85
2023/07/08 14:48:18;;;;;;;2.33;1.90;;;;;;;;;;4971257;28;20299;-86
2023/07/08 14:50:48;;;;;;;1.33;1.30;;;;;;;;;;4971354;28;20206;-86
2023/07/08 14:53:18;;;;;;;0.17;0.17;;;;;;;;;;4971502;28;20213;-86
2023/07/08 14:55:47;;;;;;;4.13;3.75;;;;;;;;;;4971015;28;20208;-86
2023/07/08 14:58:19;;;;;;;5.13;2.38;;;;;;;;;;4971360;28;20197;-86
2023/07/08 15:00:47;;;;;;;3.03;2.83;;;;;;;;;;4971164;28;20205;-86